Etusivu
METAR-TAF:

METAR-TAF

Lentoasemat :

Air Force Base Langebaanweg

Langebaan, Etelä-Afrikka

Leveyspiiri: 32-58-08S, Pituuspiiri: 018-09-55E, korkeus merenpinnasta: 33 m

Tämänhetkinen sää

Tämä raportti tehtiin 50 minuuttia sitten, kello 05.00 UTC
Tuuli 3 kn pohjoisen/luoteesta
Lämpötila 18°C
Kosteus 88%
Ilmanpaine 1015 hPa

METAR: FALW 190500Z AUTO 33003KT //// // ////// 18/16 Q1015

Aika: 07:50 (05:50 UTC)


TAF: puuttuu

Säähavainnot ja -ennusteet yli 4000 lentoasemalta (METAR- ja TAF-raportit).

Käytössä olevat sääasemat on merkitty karttaan keltaisilla ja punaisilla pisteillä.

Aseta hiiri pisteen päälle nähdäksesi sääaseman nimen.

Klikkaa sitten nähdäksesi säähavainnot ja -ennusteet.

Kartan vaihtaminen: klikkaa mustalla rastilla varustettuja vihreitä pisteitä, niin voit zoomata sisään; viivalla varustettua vihreää pistettä, niin voit zoomata ulos tai vihreitä nuolia, niin pääset viereisille kartoille.


METAR-TAF: